Time;durP1;ratioP1;P1;durP2;ratioP2;P2;SDS_P1;SDS_P2;PMS_P1;PMS_P2;Temp;Humidity;BMP_temperature;BMP_pressure;BME280_temperature;BME280_humidity;BME280_pressure;Samples;Min_cycle;Max_cycle;Signal;HPM_P1;HPM_P2
2022/04/27 00:00:38;;;;;;;5.65;3.03;;;7.30;99.90;;;;;;5068533;28;20035;-84
2022/04/27 00:03:05;;;;;;;5.20;2.80;;;7.30;99.90;;;;;;5069642;28;20020;-84
2022/04/27 00:05:32;;;;;;;5.13;2.70;;;7.30;99.90;;;;;;5091510;28;20035;-85
2022/04/27 00:07:59;;;;;;;5.30;2.95;;;7.30;99.90;;;;;;5089691;28;20354;-84
2022/04/27 00:10:25;;;;;;;6.32;3.08;;;7.30;99.90;;;;;;5111235;28;20043;-85
2022/04/27 00:12:51;;;;;;;5.85;3.22;;;7.20;99.90;;;;;;5093400;28;20034;-85
2022/04/27 00:15:20;;;;;;;5.00;2.95;;;7.20;99.90;;;;;;5093201;28;20024;-84
2022/04/27 00:17:46;;;;;;;4.60;2.70;;;7.20;99.90;;;;;;5091369;28;20024;-84
2022/04/27 00:20:12;;;;;;;7.72;2.90;;;7.20;99.90;;;;;;5079236;28;20028;-85
2022/04/27 00:22:38;;;;;;;5.75;3.13;;;7.20;99.90;;;;;;5081807;28;20484;-85
2022/04/27 00:25:04;;;;;;;5.75;2.80;;;7.20;99.90;;;;;;5078761;28;20016;-84
2022/04/27 00:27:31;;;;;;;3.97;2.35;;;7.10;99.90;;;;;;5078341;28;20081;-85
2022/04/27 00:29:58;;;;;;;5.53;2.85;;;7.10;99.90;;;;;;5096181;28;20027;-85
2022/04/27 00:32:24;;;;;;;4.28;2.55;;;7.00;99.90;;;;;;5096336;28;20382;-84
2022/04/27 00:34:50;;;;;;;5.20;3.00;;;7.00;99.90;;;;;;5078241;28;20020;-86
2022/04/27 00:37:18;;;;;;;4.22;2.67;;;6.90;99.90;;;;;;5078181;28;20064;-86
2022/04/27 00:39:44;;;;;;;4.30;2.58;;;6.90;99.90;;;;;;5077960;28;20474;-85
2022/04/27 00:42:17;;;;;;;4.57;2.67;;;6.90;99.90;;;;;;5077585;28;20128;-85
2022/04/27 00:44:44;;;;;;;3.47;2.20;;;6.90;99.90;;;;;;5078286;28;20080;-85
2022/04/27 00:47:14;;;;;;;4.78;2.63;;;6.90;99.90;;;;;;5081951;28;20107;-84
2022/04/27 00:49:43;;;;;;;3.15;2.10;;;6.90;99.90;;;;;;5104933;28;20031;-84
2022/04/27 00:52:12;;;;;;;3.58;2.30;;;6.80;99.90;;;;;;5091524;28;20031;-84
2022/04/27 00:54:42;;;;;;;5.07;2.42;;;6.80;99.90;;;;;;5106654;28;20539;-86
2022/04/27 00:57:08;;;;;;;4.88;2.35;;;6.80;99.90;;;;;;5085416;28;20058;-84
2022/04/27 00:59:39;;;;;;;4.40;2.80;;;6.80;99.90;;;;;;5086987;28;20023;-85
2022/04/27 01:02:05;;;;;;;5.13;2.60;;;6.70;99.90;;;;;;5089196;28;20024;-85
2022/04/27 01:04:33;;;;;;;3.55;2.58;;;6.70;99.90;;;;;;5105981;28;20079;-84
2022/04/27 01:06:59;;;;;;;4.97;2.13;;;6.70;99.90;;;;;;5086872;28;20031;-85
2022/04/27 01:09:25;;;;;;;4.75;2.15;;;6.60;99.90;;;;;;5099080;28;20067;-85
2022/04/27 01:11:51;;;;;;;2.88;1.95;;;6.60;99.90;;;;;;5077357;28;20111;-84
2022/04/27 01:14:17;;;;;;;3.78;2.25;;;6.60;99.90;;;;;;5081496;28;20500;-84
2022/04/27 01:16:54;;;;;;;4.05;2.70;;;6.50;99.90;;;;;;5087853;28;20023;-84
2022/04/27 01:19:23;;;;;;;4.53;2.47;;;6.50;99.90;;;;;;5077553;28;20048;-84
2022/04/27 01:21:55;;;;;;;4.07;2.50;;;6.50;99.90;;;;;;5084744;28;20110;-84
2022/04/27 01:24:24;;;;;;;3.45;2.38;;;6.40;99.90;;;;;;5085652;28;20011;-86
2022/04/27 01:26:51;;;;;;;3.72;1.98;;;6.40;99.90;;;;;;5084684;28;20440;-84
2022/04/27 01:29:17;;;;;;;4.10;2.38;;;6.40;99.90;;;;;;5104680;28;20085;-84
2022/04/27 01:31:46;;;;;;;5.40;2.35;;;6.30;99.90;;;;;;5084550;28;20027;-85
2022/04/27 01:34:13;;;;;;;3.72;2.42;;;6.30;99.90;;;;;;5085489;28;20111;-85
2022/04/27 01:36:39;;;;;;;5.97;2.33;;;6.30;99.90;;;;;;5087803;28;20020;-85
2022/04/27 01:39:05;;;;;;;5.40;2.42;;;6.30;99.90;;;;;;5097044;28;20039;-85
2022/04/27 01:41:31;;;;;;;4.28;2.50;;;6.30;99.90;;;;;;5096106;28;20500;-84
2022/04/27 01:43:57;;;;;;;4.05;2.70;;;6.20;99.90;;;;;;5095929;28;20050;-84
2022/04/27 01:46:24;;;;;;;4.00;2.65;;;6.10;99.90;;;;;;5096521;28;20032;-84
2022/04/27 01:48:50;;;;;;;4.10;2.60;;;6.10;99.90;;;;;;5096374;28;20016;-84
2022/04/27 01:51:18;;;;;;;3.67;2.63;;;6.10;99.90;;;;;;5096530;28;20027;-85
2022/04/27 01:56:28;;;;;;;5.40;2.90;;;6.10;99.90;;;;;;5114884;28;20103;-84
2022/04/27 01:58:54;;;;;;;4.60;2.60;;;6.00;99.90;;;;;;5114302;28;20458;-85
2022/04/27 02:01:21;;;;;;;5.70;2.60;;;6.00;99.90;;;;;;5096879;28;20035;-85
2022/04/27 02:03:47;;;;;;;5.78;2.92;;;5.90;99.90;;;;;;5096390;28;20028;-84
2022/04/27 02:06:16;;;;;;;4.63;2.42;;;5.90;99.90;;;;;;5096330;28;20028;-84
2022/04/27 02:08:42;;;;;;;4.45;2.58;;;5.80;99.90;;;;;;5095993;28;20043;-84
2022/04/27 02:11:08;;;;;;;4.45;2.85;;;5.80;99.90;;;;;;5096449;28;20027;-84
2022/04/27 02:13:33;;;;;;;5.20;2.75;;;5.80;99.90;;;;;;5096663;28;20027;-84
2022/04/27 02:16:01;;;;;;;4.28;2.33;;;5.70;99.90;;;;;;5096250;28;20111;-86
2022/04/27 02:18:27;;;;;;;3.85;2.50;;;5.70;99.90;;;;;;5096123;28;20019;-84
2022/04/27 02:20:56;;;;;;;4.75;2.65;;;5.70;99.90;;;;;;5114523;28;20473;-85
2022/04/27 02:23:22;;;;;;;3.70;2.55;;;5.70;99.90;;;;;;5096239;28;20534;-84
2022/04/27 02:25:48;;;;;;;5.28;2.78;;;5.70;99.90;;;;;;5096125;28;20016;-84
2022/04/27 02:28:14;;;;;;;5.90;2.70;;;5.70;99.90;;;;;;5096040;28;20068;-83
2022/04/27 02:30:40;;;;;;;5.45;2.83;;;5.60;99.90;;;;;;5095276;28;20091;-85
2022/04/27 02:33:06;;;;;;;5.65;2.60;;;5.60;99.90;;;;;;5096072;28;20028;-85
2022/04/27 02:35:31;;;;;;;5.63;2.85;;;5.60;99.90;;;;;;5095885;28;20431;-84
2022/04/27 02:37:57;;;;;;;6.03;2.90;;;5.60;99.90;;;;;;5096165;28;20019;-85
2022/04/27 02:40:23;;;;;;;4.25;2.90;;;5.50;99.90;;;;;;5120320;28;20080;-85
2022/04/27 02:42:49;;;;;;;4.53;2.80;;;5.50;99.90;;;;;;5096480;28;20124;-85
2022/04/27 02:45:15;;;;;;;4.25;3.10;;;5.50;99.90;;;;;;5096828;28;20019;-85
2022/04/27 02:47:40;;;;;;;5.65;3.13;;;5.50;99.90;;;;;;5095941;28;20022;-84
2022/04/27 02:52:50;;;;;;;5.03;3.30;;;5.40;99.90;;;;;;5114298;28;20042;-84
2022/04/27 02:55:16;;;;;;;4.93;3.13;;;5.40;99.90;;;;;;5095524;28;20016;-84
2022/04/27 02:57:42;;;;;;;5.65;3.17;;;5.30;99.90;;;;;;5114097;28;20026;-84
2022/04/27 03:00:08;;;;;;;4.88;3.03;;;5.30;99.90;;;;;;5113882;28;20537;-84
2022/04/27 03:02:33;;;;;;;4.50;3.00;;;5.30;99.90;;;;;;5114007;28;20055;-83
2022/04/27 03:05:00;;;;;;;4.43;2.90;;;5.30;99.90;;;;;;5113757;28;20020;-84
2022/04/27 03:07:28;;;;;;;4.72;3.33;;;5.30;99.90;;;;;;5095591;28;20385;-84
2022/04/27 03:09:54;;;;;;;6.10;3.95;;;5.30;99.90;;;;;;5091776;28;20055;-84
2022/04/27 03:12:20;;;;;;;5.05;3.38;;;5.20;99.90;;;;;;5092042;28;20016;-85
2022/04/27 03:14:46;;;;;;;5.88;3.15;;;5.20;99.90;;;;;;5092036;28;20034;-85
2022/04/27 03:17:11;;;;;;;4.72;3.00;;;5.20;99.90;;;;;;5091854;28;20047;-84
2022/04/27 03:19:37;;;;;;;4.40;3.20;;;5.20;99.90;;;;;;5092908;28;20032;-84
2022/04/27 03:22:03;;;;;;;6.18;3.85;;;5.20;99.90;;;;;;5092337;28;20020;-84
2022/04/27 03:24:29;;;;;;;6.15;3.45;;;5.10;99.90;;;;;;5093224;28;20488;-84
2022/04/27 03:26:54;;;;;;;4.97;3.17;;;5.10;99.90;;;;;;5091528;28;20397;-84
2022/04/27 03:29:20;;;;;;;5.22;3.50;;;5.10;99.90;;;;;;5091733;28;20138;-84
2022/04/27 03:31:46;;;;;;;5.72;3.50;;;5.00;99.90;;;;;;5091794;28;20111;-84
2022/04/27 03:34:12;;;;;;;5.55;3.80;;;5.00;99.90;;;;;;5093214;28;20051;-85
2022/04/27 03:36:38;;;;;;;7.13;3.90;;;5.00;99.90;;;;;;5091855;28;20020;-85
2022/04/27 03:39:03;;;;;;;5.95;3.70;;;4.90;99.90;;;;;;5091662;28;20038;-85
2022/04/27 03:41:29;;;;;;;6.60;3.55;;;4.90;99.90;;;;;;5091393;28;20032;-84
2022/04/27 03:43:55;;;;;;;5.55;3.47;;;4.90;99.90;;;;;;5096687;28;20527;-85
2022/04/27 03:46:21;;;;;;;5.85;3.92;;;4.90;99.90;;;;;;5095915;28;20080;-85
2022/04/27 03:48:47;;;;;;;5.32;3.75;;;4.80;99.90;;;;;;5095868;28;20024;-85
2022/04/27 03:51:13;;;;;;;5.95;4.05;;;4.90;99.90;;;;;;5095653;28;20024;-84
2022/04/27 03:53:38;;;;;;;5.38;3.42;;;4.80;99.90;;;;;;5097034;28;20520;-84
2022/04/27 03:56:05;;;;;;;6.00;3.83;;;4.80;99.90;;;;;;5095447;28;20016;-85
2022/04/27 03:58:31;;;;;;;6.13;3.50;;;4.80;99.90;;;;;;5095809;28;20081;-85
2022/04/27 04:00:57;;;;;;;6.88;3.72;;;4.80;99.90;;;;;;5095685;28;20032;-84
2022/04/27 04:03:23;;;;;;;5.60;3.75;;;4.80;99.90;;;;;;5095464;28;20461;-85
2022/04/27 04:05:49;;;;;;;6.35;3.88;;;4.70;99.90;;;;;;5095388;28;20035;-84
2022/04/27 04:08:15;;;;;;;5.68;3.80;;;4.70;99.90;;;;;;5095120;28;20040;-84
2022/04/27 04:10:41;;;;;;;7.20;4.63;;;4.70;99.90;;;;;;5098544;28;20030;-84
2022/04/27 04:13:06;;;;;;;6.22;4.03;;;4.60;99.90;;;;;;5117141;28;20028;-84
2022/04/27 04:15:33;;;;;;;8.75;4.55;;;4.60;99.90;;;;;;5098727;28;20024;-84
2022/04/27 04:17:58;;;;;;;6.13;3.70;;;4.50;99.90;;;;;;5098504;28;20425;-85
2022/04/27 04:20:24;;;;;;;7.28;4.22;;;4.50;99.90;;;;;;5116392;28;20153;-85
2022/04/27 04:22:50;;;;;;;8.48;3.97;;;4.50;99.90;;;;;;5116862;28;20035;-84
2022/04/27 04:30:44;;;;;;;6.63;4.10;;;4.50;99.90;;;;;;5117138;28;20073;-85
2022/04/27 04:33:10;;;;;;;7.28;3.83;;;4.50;99.90;;;;;;5098896;28;20118;-85
2022/04/27 04:35:36;;;;;;;6.55;4.00;;;4.50;99.90;;;;;;5098795;28;20023;-85
2022/04/27 04:38:04;;;;;;;7.50;3.80;;;4.50;99.90;;;;;;5098100;28;20031;-85
2022/04/27 04:40:30;;;;;;;5.43;3.90;;;4.50;99.90;;;;;;5098201;28;20032;-85
2022/04/27 04:42:56;;;;;;;9.43;4.07;;;4.50;99.90;;;;;;5098408;28;20024;-85
2022/04/27 04:45:23;;;;;;;5.65;4.20;;;4.60;99.90;;;;;;5116668;28;20062;-85
2022/04/27 04:47:49;;;;;;;5.68;3.58;;;4.60;99.90;;;;;;5098383;28;20058;-85
2022/04/27 04:50:15;;;;;;;5.25;3.65;;;4.50;99.90;;;;;;5116286;28;20020;-84
2022/04/27 04:52:41;;;;;;;5.90;4.03;;;4.50;99.90;;;;;;5098065;28;20030;-83
2022/04/27 04:55:07;;;;;;;6.38;4.18;;;4.50;99.90;;;;;;5097152;28;20461;-85
2022/04/27 04:57:36;;;;;;;6.30;4.25;;;4.60;99.90;;;;;;5116709;28;20032;-85
2022/04/27 05:00:04;;;;;;;7.65;3.67;;;4.60;99.90;;;;;;5116327;28;20028;-84
2022/04/27 05:02:34;;;;;;;5.65;3.50;;;4.60;99.90;;;;;;5098211;28;20473;-84
2022/04/27 05:05:04;;;;;;;5.30;3.70;;;4.60;99.90;;;;;;5116906;28;20071;-84
2022/04/27 05:07:30;;;;;;;4.40;3.60;;;4.70;99.90;;;;;;5116266;28;20464;-84
2022/04/27 05:09:56;;;;;;;6.47;4.00;;;4.70;99.90;;;;;;5116023;28;20051;-84
2022/04/27 05:12:25;;;;;;;4.60;3.45;;;4.70;99.90;;;;;;5098322;28;20024;-85
2022/04/27 05:14:52;;;;;;;5.10;3.90;;;4.70;99.90;;;;;;5099436;28;20080;-83
2022/04/27 05:17:17;;;;;;;5.13;3.45;;;4.80;99.90;;;;;;5098260;28;20020;-84
2022/04/27 05:19:43;;;;;;;6.32;4.28;;;4.80;99.90;;;;;;5117639;28;20357;-85
2022/04/27 05:22:09;;;;;;;4.30;3.45;;;4.90;99.90;;;;;;5119800;28;20042;-85
2022/04/27 05:24:35;;;;;;;5.40;3.90;;;4.90;99.90;;;;;;5102596;28;20477;-84
2022/04/27 05:27:01;;;;;;;6.35;3.53;;;5.00;99.90;;;;;;5106729;28;20154;-86
2022/04/27 05:32:12;;;;;;;5.32;3.95;;;5.10;99.90;;;;;;5124418;28;20050;-84
2022/04/27 05:34:37;;;;;;;5.13;3.88;;;5.20;99.90;;;;;;5113891;28;20027;-84
2022/04/27 05:37:03;;;;;;;7.32;4.20;;;5.20;99.90;;;;;;5133536;28;20023;-86
2022/04/27 05:39:29;;;;;;;6.95;3.90;;;5.30;99.90;;;;;;5111872;28;20055;-85
2022/04/27 05:42:02;;;;;;;5.07;4.00;;;5.30;99.90;;;;;;5118254;28;20011;-85
2022/04/27 05:44:27;;;;;;;5.80;3.73;;;5.40;99.90;;;;;;5122915;28;20019;-84
2022/04/27 05:46:55;;;;;;;5.88;4.10;;;5.50;99.90;;;;;;5140681;28;20015;-85
2022/04/27 05:49:21;;;;;;;6.43;3.97;;;5.50;99.90;;;;;;5140846;28;20000;-85
2022/04/27 05:51:48;;;;;;;6.05;3.88;;;5.60;99.90;;;;;;5123204;28;20023;-85
2022/04/27 05:54:14;;;;;;;7.35;4.38;;;5.70;99.90;;;;;;5140489;28;20028;-83
2022/04/27 05:56:43;;;;;;;6.10;4.18;;;5.80;99.90;;;;;;5121524;28;20032;-84
2022/04/27 05:59:10;;;;;;;5.28;3.47;;;5.80;99.90;;;;;;5138735;28;20031;-84
2022/04/27 06:01:36;;;;;;;5.88;3.78;;;5.90;99.90;;;;;;5117179;28;20050;-84
2022/04/27 06:04:01;;;;;;;7.90;4.13;;;6.00;99.90;;;;;;5107712;28;20079;-84
2022/04/27 06:06:27;;;;;;;7.30;3.97;;;6.00;99.90;;;;;;5116226;28;20034;-84
2022/04/27 06:08:53;;;;;;;7.95;4.72;;;6.10;99.90;;;;;;5118111;28;20050;-83
2022/04/27 06:11:22;;;;;;;6.65;4.38;;;6.10;99.90;;;;;;5118219;28;20035;-85
2022/04/27 06:13:48;;;;;;;5.82;4.00;;;6.20;99.90;;;;;;5134881;28;20045;-85
2022/04/27 06:16:14;;;;;;;6.20;4.25;;;6.20;99.90;;;;;;5131690;28;20034;-84
2022/04/27 06:18:41;;;;;;;7.03;4.10;;;6.40;99.90;;;;;;5130884;28;20087;-85
2022/04/27 06:21:10;;;;;;;6.00;4.00;;;6.40;99.90;;;;;;5106979;28;20032;-85
2022/04/27 06:23:39;;;;;;;6.85;4.10;;;6.50;99.90;;;;;;5099507;28;20020;-84
2022/04/27 06:26:07;;;;;;;5.95;3.92;;;6.70;99.90;;;;;;5107125;28;20027;-84
2022/04/27 06:28:36;;;;;;;6.70;4.15;;;6.80;99.90;;;;;;5125414;28;20023;-85
2022/04/27 06:31:02;;;;;;;6.43;4.10;;;6.90;99.90;;;;;;5118404;28;20058;-85
2022/04/27 06:33:28;;;;;;;7.78;4.57;;;7.10;99.90;;;;;;5101976;28;20019;-86
2022/04/27 06:35:53;;;;;;;7.65;4.40;;;7.10;99.90;;;;;;5116574;28;20016;-85
2022/04/27 06:38:19;;;;;;;6.68;4.10;;;7.20;99.90;;;;;;5098832;28;20028;-86
2022/04/27 06:40:46;;;;;;;6.55;5.05;;;7.30;99.90;;;;;;5098724;28;20167;-85
2022/04/27 06:43:12;;;;;;;8.63;5.90;;;7.40;99.90;;;;;;5097474;28;20019;-86
2022/04/27 06:45:37;;;;;;;7.30;5.05;;;7.50;99.90;;;;;;5097609;28;20114;-85
2022/04/27 06:48:03;;;;;;;7.40;4.95;;;7.60;99.90;;;;;;5115487;28;20019;-85
2022/04/27 06:50:30;;;;;;;9.45;5.70;;;7.60;99.90;;;;;;5097034;28;20077;-85
2022/04/27 06:52:59;;;;;;;8.77;5.38;;;7.70;99.90;;;;;;5096610;28;20123;-85
2022/04/27 06:55:25;;;;;;;7.28;4.50;;;7.70;99.90;;;;;;5096904;28;20020;-85
2022/04/27 06:57:51;;;;;;;6.88;4.53;;;7.80;99.90;;;;;;5097407;28;20377;-85
2022/04/27 07:00:17;;;;;;;11.93;7.80;;;7.90;99.90;;;;;;5119441;28;20036;-84
2022/04/27 07:02:43;;;;;;;13.32;7.93;;;8.00;99.90;;;;;;5097098;28;20033;-85
2022/04/27 07:05:12;;;;;;;9.35;6.20;;;8.10;99.90;;;;;;5115759;28;20053;-85
2022/04/27 07:07:38;;;;;;;10.05;5.70;;;8.20;99.90;;;;;;5096525;28;20034;-84
2022/04/27 07:10:07;;;;;;;12.23;6.85;;;8.20;99.90;;;;;;5092520;28;20066;-85
2022/04/27 07:12:32;;;;;;;10.20;5.95;;;8.40;99.90;;;;;;5092967;28;20024;-85
2022/04/27 07:14:58;;;;;;;7.80;5.65;;;8.40;99.90;;;;;;5092318;28;20035;-83
2022/04/27 07:17:24;;;;;;;10.68;5.97;;;8.50;99.90;;;;;;5091818;28;20381;-84
2022/04/27 07:19:50;;;;;;;9.75;5.35;;;8.60;99.90;;;;;;5092484;28;20028;-83
2022/04/27 07:22:15;;;;;;;10.02;5.60;;;8.70;99.90;;;;;;5091439;28;20035;-83
2022/04/27 07:24:41;;;;;;;9.43;5.05;;;8.80;99.90;;;;;;5088755;28;20028;-82
2022/04/27 07:27:07;;;;;;;7.35;4.28;;;8.90;99.90;;;;;;5088472;28;20032;-79
2022/04/27 07:29:32;;;;;;;7.28;3.90;;;8.90;99.90;;;;;;5088550;28;20028;-80
2022/04/27 07:32:01;;;;;;;6.30;3.85;;;9.00;99.90;;;;;;5088388;28;20064;-79
2022/04/27 07:34:27;;;;;;;5.75;3.45;;;9.10;99.90;;;;;;5089387;28;20024;-79
2022/04/27 07:36:53;;;;;;;8.93;4.47;;;9.10;99.90;;;;;;5089660;28;20032;-82
2022/04/27 07:39:18;;;;;;;5.93;3.63;;;9.10;99.90;;;;;;5088402;28;20067;-81
2022/04/27 07:41:47;;;;;;;6.38;3.70;;;9.20;99.90;;;;;;5089398;28;20043;-81
2022/04/27 07:44:12;;;;;;;5.82;3.50;;;9.30;99.90;;;;;;5088324;28;20048;-80
2022/04/27 07:46:38;;;;;;;4.65;2.92;;;9.30;99.90;;;;;;5089373;28;20067;-82
2022/04/27 07:49:04;;;;;;;4.10;2.50;;;9.30;99.90;;;;;;5088305;28;20496;-81
2022/04/27 07:51:29;;;;;;;5.03;3.03;;;9.30;99.90;;;;;;5088140;28;20028;-84
2022/04/27 07:53:55;;;;;;;5.13;2.72;;;9.40;99.90;;;;;;5088896;28;20020;-83
2022/04/27 07:56:20;;;;;;;5.95;2.55;;;9.50;99.90;;;;;;5088455;28;20119;-83
2022/04/27 07:58:46;;;;;;;5.45;2.00;;;9.50;99.90;;;;;;5088962;28;20499;-82
2022/04/27 08:01:12;;;;;;;4.90;1.90;;;9.60;99.90;;;;;;5089653;28;20032;-83
2022/04/27 08:03:37;;;;;;;2.85;1.85;;;9.70;99.90;;;;;;5088120;28;20057;-82
2022/04/27 08:06:04;;;;;;;3.28;1.80;;;9.70;99.90;;;;;;5090295;28;20059;-85
2022/04/27 08:08:34;;;;;;;4.10;2.40;;;9.70;99.90;;;;;;5092987;28;20531;-85
2022/04/27 08:11:00;;;;;;;4.75;2.42;;;9.70;99.90;;;;;;5093033;28;20442;-83
2022/04/27 08:13:25;;;;;;;4.22;1.95;;;9.80;99.90;;;;;;5091539;28;20028;-83
2022/04/27 08:15:51;;;;;;;4.43;2.15;;;9.90;99.90;;;;;;5109888;28;20035;-83
2022/04/27 08:18:17;;;;;;;3.88;1.48;;;9.90;99.90;;;;;;5091690;28;20428;-83
2022/04/27 08:23:32;;;;;;;5.97;2.40;;;9.90;99.90;;;;;;5109864;28;20026;-85
2022/04/27 08:26:00;;;;;;;5.13;2.65;;;10.00;99.90;;;;;;5111694;28;20525;-91
2022/04/27 08:28:27;;;;;;;5.00;2.35;;;10.10;99.90;;;;;;5093645;28;20027;-83
2022/04/27 08:30:53;;;;;;;6.07;2.13;;;10.30;99.90;;;;;;5113216;28;20031;-83
2022/04/27 08:33:19;;;;;;;4.53;2.35;;;10.40;99.90;;;;;;5113181;28;20028;-83
2022/04/27 08:35:46;;;;;;;7.00;2.95;;;10.50;99.90;;;;;;5094620;28;20069;-83
2022/04/27 08:38:13;;;;;;;7.55;2.97;;;10.50;99.90;;;;;;5113031;28;20032;-83
2022/04/27 08:40:46;;;;;;;5.68;2.53;;;10.60;99.90;;;;;;5112781;28;20059;-84
2022/04/27 08:43:13;;;;;;;4.80;2.15;;;10.70;99.90;;;;;;5095259;28;20655;-83
2022/04/27 08:45:41;;;;;;;5.53;2.38;;;10.80;99.90;;;;;;5095498;28;20437;-85
2022/04/27 08:48:07;;;;;;;4.88;2.30;;;11.00;99.90;;;;;;5094530;28;20023;-84
2022/04/27 08:50:33;;;;;;;4.60;2.63;;;11.00;99.90;;;;;;5095351;28;20647;-85
2022/04/27 08:53:00;;;;;;;4.50;2.10;;;11.10;99.90;;;;;;5094263;28;20511;-84
2022/04/27 08:55:29;;;;;;;2.83;1.80;;;11.20;99.90;;;;;;5094221;28;20572;-83
2022/04/27 08:58:12;;;;;;;4.45;2.35;;;11.20;99.90;;;;;;5094662;28;20023;-84
2022/04/27 09:00:38;;;;;;;4.93;2.03;;;11.30;99.90;;;;;;5095782;28;20189;-84
2022/04/27 09:03:23;;;;;;;5.63;2.20;;;11.30;99.90;;;;;;5113490;28;20031;-86
2022/04/27 09:05:54;;;;;;;2.88;1.60;;;11.40;99.90;;;;;;5097348;28;20043;-85
2022/04/27 09:08:20;;;;;;;4.72;1.95;;;11.60;99.90;;;;;;5095780;28;20024;-85
2022/04/27 09:10:47;;;;;;;3.50;2.17;;;11.90;99.90;;;;;;5114066;28;20036;-86
2022/04/27 09:13:12;;;;;;;3.35;1.85;;;12.10;99.90;;;;;;5113113;28;20028;-84
2022/04/27 09:15:39;;;;;;;5.45;2.63;;;12.30;99.90;;;;;;5093863;28;20495;-84
2022/04/27 09:21:02;;;;;;;7.93;3.42;;;12.50;99.90;;;;;;5111293;28;20062;-82
2022/04/27 09:23:37;;;;;;;8.10;3.75;;;12.70;99.90;;;;;;5090100;28;20110;-82
2022/04/27 09:26:17;;;;;;;5.75;2.70;;;12.90;99.90;;;;;;5074032;28;20478;-81
2022/04/27 09:28:47;;;;;;;6.00;2.50;;;13.10;99.90;;;;;;5090254;28;20436;-82
2022/04/27 09:31:28;;;;;;;4.82;2.67;;;13.20;99.90;;;;;;5072868;28;20119;-84
2022/04/27 09:36:47;;;;;;;4.07;2.08;;;13.70;99.90;;;;;;5092038;28;20093;-84
2022/04/27 09:39:23;;;;;;;5.93;2.25;;;14.10;99.90;;;;;;5091502;28;20035;-82
2022/04/27 09:41:50;;;;;;;4.20;1.80;;;14.60;99.90;;;;;;5091231;28;20472;-84
2022/04/27 09:44:35;;;;;;;3.38;2.17;;;14.70;99.90;;;;;;5073042;28;20028;-83
2022/04/27 09:47:05;;;;;;;2.25;1.40;;;14.90;99.90;;;;;;5091203;28;20477;-83
2022/04/27 09:49:31;;;;;;;6.97;2.00;;;14.70;99.90;;;;;;5091091;28;20506;-82
2022/04/27 09:51:58;;;;;;;3.50;1.63;;;14.60;99.90;;;;;;5093056;28;20055;-82
2022/04/27 09:54:28;;;;;;;5.15;2.67;;;14.60;99.90;;;;;;5110954;28;20023;-87
2022/04/27 09:56:59;;;;;;;3.50;1.85;;;14.80;99.90;;;;;;5094834;28;20119;-85
2022/04/27 09:59:30;;;;;;;5.15;2.33;;;14.80;99.60;;;;;;5093251;28;20501;-84
2022/04/27 10:02:04;;;;;;;3.17;1.95;;;14.80;99.40;;;;;;5095596;28;20045;-87
2022/04/27 10:04:30;;;;;;;3.72;1.77;;;15.50;99.20;;;;;;5092093;28;20020;-84
2022/04/27 10:06:58;;;;;;;6.53;1.95;;;16.50;98.40;;;;;;5073375;28;20407;-86
2022/04/27 10:09:28;;;;;;;4.25;2.10;;;16.70;97.40;;;;;;5091518;28;20663;-83
2022/04/27 10:11:55;;;;;;;4.00;1.48;;;17.20;97.30;;;;;;5071773;28;20024;-85
2022/04/27 10:14:22;;;;;;;4.20;1.58;;;17.60;96.90;;;;;;5072594;28;20465;-84
2022/04/27 10:16:48;;;;;;;7.40;2.13;;;18.40;96.40;;;;;;5072685;28;20028;-84
2022/04/27 10:19:16;;;;;;;3.58;1.50;;;19.20;95.00;;;;;;5093168;28;20024;-85
2022/04/27 10:21:56;;;;;;;4.15;1.73;;;19.50;94.00;;;;;;5072723;28;20073;-84
2022/04/27 10:24:33;;;;;;;4.72;1.50;;;19.70;93.80;;;;;;5072811;28;20027;-84
2022/04/27 10:27:18;;;;;;;2.28;1.15;;;20.70;92.90;;;;;;5072063;28;20050;-83
2022/04/27 10:29:57;;;;;;;4.90;1.58;;;20.80;92.80;;;;;;5073614;28;20034;-85
2022/04/27 10:32:41;;;;;;;3.17;1.55;;;20.30;92.50;;;;;;5073324;28;20070;-84
2022/04/27 10:35:12;;;;;;;5.93;2.72;;;20.60;92.80;;;;;;5091327;28;20024;-83
2022/04/27 10:37:57;;;;;;;5.15;1.92;;;21.30;90.70;;;;;;5072388;28;20211;-82
2022/04/27 10:40:38;;;;;;;3.65;1.60;;;22.30;90.10;;;;;;5072044;28;20105;-82
2022/04/27 10:43:06;;;;;;;5.63;1.90;;;23.20;88.90;;;;;;5071379;28;20032;-84
2022/04/27 10:45:40;;;;;;;3.72;1.70;;;23.90;87.90;;;;;;5072152;28;20028;-83
2022/04/27 10:48:08;;;;;;;2.30;1.45;;;24.30;86.40;;;;;;5087837;28;20416;-86
2022/04/27 10:50:37;;;;;;;4.53;1.75;;;24.40;84.40;;;;;;5089930;28;20024;-86
2022/04/27 10:53:24;;;;;;;4.43;1.70;;;24.30;83.30;;;;;;5089383;28;20024;-87
2022/04/27 10:55:53;;;;;;;3.17;1.30;;;24.20;81.10;;;;;;5091233;28;20028;-85
2022/04/27 10:58:22;;;;;;;3.67;1.90;;;23.40;80.60;;;;;;5072553;28;20046;-85
2022/04/27 11:01:06;;;;;;;7.20;2.72;;;23.10;80.30;;;;;;5090437;28;20039;-82
2022/04/27 11:03:36;;;;;;;3.90;2.00;;;23.60;80.70;;;;;;5091735;28;20413;-84
2022/04/27 11:06:12;;;;;;;5.15;2.10;;;24.10;79.40;;;;;;5091107;28;20077;-85
2022/04/27 11:08:53;;;;;;;5.00;1.45;;;24.50;77.20;;;;;;5072928;28;20108;-86
2022/04/27 11:11:21;;;;;;;4.55;1.80;;;24.80;77.30;;;;;;5073434;28;20032;-86
2022/04/27 11:13:50;;;;;;;4.22;1.80;;;25.00;75.10;;;;;;5073391;28;20458;-85
2022/04/27 11:16:16;;;;;;;3.20;1.23;;;25.10;73.20;;;;;;5094045;28;20686;-84
2022/04/27 11:18:49;;;;;;;3.65;1.70;;;25.10;72.50;;;;;;5074604;28;20120;-85
2022/04/27 11:21:17;;;;;;;2.83;1.63;;;25.10;72.90;;;;;;5093550;28;20039;-85
2022/04/27 11:23:47;;;;;;;3.10;1.67;;;24.90;71.30;;;;;;5075359;28;20027;-85
2022/04/27 11:26:13;;;;;;;4.00;1.30;;;25.10;70.90;;;;;;5075530;28;20020;-85
2022/04/27 11:28:43;;;;;;;3.53;1.75;;;25.40;70.60;;;;;;5093416;28;20096;-86
2022/04/27 11:31:09;;;;;;;3.85;1.35;;;25.40;69.00;;;;;;5073934;28;20035;-86
2022/04/27 11:33:40;;;;;;;3.40;1.65;;;25.50;69.80;;;;;;5073830;28;20020;-86
2022/04/27 11:36:26;;;;;;;4.10;1.85;;;25.40;70.10;;;;;;5074609;28;20083;-84
2022/04/27 11:38:52;;;;;;;2.78;1.42;;;25.30;68.60;;;;;;5092334;28;20537;-87
2022/04/27 11:41:20;;;;;;;2.55;1.25;;;25.30;68.90;;;;;;5075241;28;20036;-86
2022/04/27 11:43:50;;;;;;;2.78;1.30;;;25.30;69.30;;;;;;5075232;28;20012;-87
2022/04/27 11:46:16;;;;;;;4.13;1.70;;;25.30;69.20;;;;;;5075551;28;20029;-89
2022/04/27 11:48:49;;;;;;;3.72;1.40;;;25.30;68.50;;;;;;5094024;28;20103;-89
2022/04/27 11:51:15;;;;;;;;;;;25.20;67.90;;;;;;5075453;28;20097;-85
2022/04/27 11:53:47;;;;;;;4.13;1.40;;;25.40;68.40;;;;;;5074376;28;19904;-85
2022/04/27 11:56:14;;;;;;;2.92;1.60;;;26.00;67.90;;;;;;5073102;28;20026;-86
2022/04/27 11:58:40;;;;;;;3.42;1.17;;;26.40;66.50;;;;;;5071605;28;20024;-84
2022/04/27 12:01:05;;;;;;;4.40;1.77;;;26.00;66.60;;;;;;5069908;28;20040;-88
2022/04/27 12:03:39;;;;;;;2.08;1.20;;;25.30;66.60;;;;;;5090518;28;20030;-85
2022/04/27 12:06:05;;;;;;;3.00;1.40;;;24.50;68.10;;;;;;5093329;28;20051;-86
2022/04/27 12:08:33;;;;;;;3.55;1.55;;;23.80;68.90;;;;;;5079341;28;20059;-85
2022/04/27 12:10:59;;;;;;;3.45;1.40;;;23.90;68.70;;;;;;5117497;28;20089;-89
2022/04/27 12:13:25;;;;;;;3.80;1.50;;;24.10;67.90;;;;;;5116623;28;20267;-89
2022/04/27 12:15:54;;;;;;;3.85;1.70;;;24.20;67.80;;;;;;5117342;28;20473;-87
2022/04/27 12:18:24;;;;;;;2.92;1.45;;;24.70;67.00;;;;;;5096578;28;20473;-87
2022/04/27 12:20:50;;;;;;;3.33;1.70;;;25.20;66.90;;;;;;5115901;28;20123;-87
2022/04/27 12:23:30;;;;;;;3.10;1.48;;;25.30;65.80;;;;;;5114622;28;20016;-85
2022/04/27 12:25:58;;;;;;;4.32;1.52;;;25.70;66.00;;;;;;5097752;28;20186;-88
2022/04/27 12:28:32;;;;;;;4.38;1.63;;;26.20;65.60;;;;;;5098373;28;20027;-87
2022/04/27 12:31:07;;;;;;;4.38;1.70;;;26.40;64.50;;;;;;5098160;28;20092;-88
2022/04/27 12:33:39;;;;;;;1.70;1.20;;;26.50;63.60;;;;;;5099699;28;20019;-89
2022/04/27 12:39:05;;;;;;;4.45;1.50;;;26.80;64.50;;;;;;5115499;28;20038;-86
2022/04/27 12:41:47;;;;;;;9.55;1.80;;;27.00;64.00;;;;;;5114119;28;20122;-85
2022/04/27 12:44:20;;;;;;;7.40;2.38;;;27.10;64.90;;;;;;5076447;28;20085;-84
2022/04/27 12:47:00;;;;;;;3.55;1.42;;;27.40;65.80;;;;;;5075921;28;20023;-86
2022/04/27 12:49:29;;;;;;;5.45;1.55;;;27.40;66.20;;;;;;5074647;28;20032;-84
2022/04/27 12:51:57;;;;;;;6.32;1.90;;;27.30;65.20;;;;;;5093471;28;20055;-81
2022/04/27 12:54:34;;;;;;;3.75;1.67;;;27.20;65.10;;;;;;5075384;28;20020;-87
2022/04/27 12:57:00;;;;;;;3.13;1.70;;;27.00;65.40;;;;;;5075856;28;20500;-89
2022/04/27 12:59:25;;;;;;;3.33;1.40;;;26.60;65.90;;;;;;5094887;28;20103;-88
2022/04/27 13:02:04;;;;;;;3.72;1.80;;;26.50;65.80;;;;;;5093638;28;20067;-85
2022/04/27 13:04:31;;;;;;;5.68;1.83;;;26.60;65.30;;;;;;5075667;28;20024;-87
2022/04/27 13:06:57;;;;;;;4.18;1.70;;;26.60;63.30;;;;;;5075876;28;20480;-87
2022/04/27 13:12:08;;;;;;;3.33;1.70;;;26.70;63.00;;;;;;5094006;28;20417;-89
2022/04/27 13:14:34;;;;;;;4.13;1.50;;;26.70;63.50;;;;;;5075910;28;20031;-89
2022/04/27 13:17:00;;;;;;;4.28;1.75;;;27.00;64.60;;;;;;5092583;28;20028;-87
2022/04/27 13:19:25;;;;;;;4.35;1.95;;;27.10;64.10;;;;;;5091994;28;20111;-85
2022/04/27 13:21:51;;;;;;;3.17;1.52;;;27.00;64.20;;;;;;5074521;28;20032;-87
2022/04/27 13:24:17;;;;;;;5.13;1.60;;;27.00;65.00;;;;;;5074899;28;20078;-86